Time;durP1;ratioP1;P1;durP2;ratioP2;P2;SDS_P1;SDS_P2;PMS_P1;PMS_P2;Temp;Humidity;BMP_temperature;BMP_pressure;BME280_temperature;BME280_humidity;BME280_pressure;Samples;Min_cycle;Max_cycle;Signal;HPM_P1;HPM_P2
2023/09/17 00:01:14;;;;;;;0.80;0.63;;;24.60;68.70;;;;;;6363296;28;20075;-50
2023/09/17 00:04:15;;;;;;;0.88;0.88;;;24.60;68.60;;;;;;6360118;28;20083;-50
2023/09/17 00:07:18;;;;;;;0.80;0.77;;;24.60;68.70;;;;;;6357574;28;20050;-50
2023/09/17 00:10:19;;;;;;;0.75;0.70;;;24.60;68.80;;;;;;6359295;28;20027;-51
2023/09/17 00:13:21;;;;;;;0.70;0.70;;;24.60;68.80;;;;;;6365049;28;20043;-49
2023/09/17 00:16:24;;;;;;;0.63;0.60;;;24.30;68.50;;;;;;6359391;28;20054;-49
2023/09/17 00:19:27;;;;;;;0.80;0.65;;;24.70;68.80;;;;;;6361004;28;20091;-49
2023/09/17 00:22:29;;;;;;;0.65;0.65;;;24.50;68.80;;;;;;6358590;28;20514;-49
2023/09/17 00:25:31;;;;;;;0.68;0.68;;;24.60;68.60;;;;;;6359958;28;20063;-49
2023/09/17 00:28:34;;;;;;;0.88;0.77;;;24.50;68.70;;;;;;6364396;28;20067;-47
2023/09/17 00:31:37;;;;;;;1.00;0.90;;;24.50;68.70;;;;;;6365525;28;20656;-49
2023/09/17 00:34:38;;;;;;;1.30;0.90;;;24.50;68.60;;;;;;6360823;28;20027;-48
2023/09/17 00:37:42;;;;;;;0.70;0.70;;;24.60;68.80;;;;;;6360055;28;20050;-47
2023/09/17 00:40:45;;;;;;;0.70;0.70;;;24.40;68.50;;;;;;6363760;28;20046;-48
2023/09/17 00:43:48;;;;;;;0.70;0.70;;;24.40;68.60;;;;;;6362941;28;20048;-47
2023/09/17 00:46:51;;;;;;;0.75;0.63;;;24.40;68.80;;;;;;6365725;28;20172;-49
2023/09/17 00:49:53;;;;;;;0.82;0.68;;;24.30;68.50;;;;;;6367056;28;20162;-49
2023/09/17 00:52:57;;;;;;;0.95;0.70;;;24.50;68.70;;;;;;6351444;28;20050;-48
2023/09/17 00:56:01;;;;;;;0.80;0.60;;;24.30;68.50;;;;;;6366077;28;20036;-50
2023/09/17 00:59:05;;;;;;;0.80;0.70;;;24.40;68.50;;;;;;6365958;28;20272;-47
2023/09/17 01:02:09;;;;;;;0.82;0.73;;;24.30;68.50;;;;;;6351191;28;20032;-48
2023/09/17 01:05:11;;;;;;;0.82;0.80;;;24.50;68.80;;;;;;6369604;28;20271;-48
2023/09/17 01:08:13;;;;;;;0.93;0.82;;;24.50;68.70;;;;;;6361955;28;20055;-47
2023/09/17 01:11:15;;;;;;;1.00;0.82;;;24.30;68.70;;;;;;6359909;28;20044;-49
2023/09/17 01:14:17;;;;;;;0.63;0.60;;;24.40;68.40;;;;;;6364551;22;20425;-44
2023/09/17 01:17:19;;;;;;;0.70;0.60;;;24.50;69.00;;;;;;6321522;28;20040;-44
2023/09/17 01:20:29;;;;;;;1.08;0.80;;;24.20;68.70;;;;;;6321331;28;20046;-47
2023/09/17 01:23:38;;;;;;;1.10;0.80;;;24.00;68.50;;;;;;6323579;28;20047;-44
2023/09/17 01:26:44;;;;;;;0.85;0.80;;;24.10;68.60;;;;;;6306399;28;20526;-45
2023/09/17 01:29:47;;;;;;;0.98;0.80;;;24.50;68.90;;;;;;6306892;28;20047;-45
2023/09/17 01:32:48;;;;;;;0.90;0.70;;;24.20;68.70;;;;;;6323231;28;20047;-43
2023/09/17 01:35:56;;;;;;;0.90;0.80;;;24.40;69.10;;;;;;6323271;28;20180;-46
2023/09/17 01:39:03;;;;;;;1.08;0.82;;;24.50;69.00;;;;;;6323907;28;20032;-46
2023/09/17 01:42:06;;;;;;;0.80;0.77;;;24.40;69.00;;;;;;6324801;28;20063;-47
2023/09/17 01:45:09;;;;;;;0.82;0.80;;;24.50;69.10;;;;;;6322729;28;20083;-46
2023/09/17 01:48:11;;;;;;;1.30;0.70;;;24.50;69.00;;;;;;6322343;28;20093;-43
2023/09/17 01:51:14;;;;;;;1.00;0.70;;;24.30;69.00;;;;;;6320879;28;20036;-45
2023/09/17 01:54:16;;;;;;;1.05;0.82;;;24.40;69.10;;;;;;6320352;28;20040;-47
2023/09/17 01:57:17;;;;;;;1.15;0.95;;;24.30;68.90;;;;;;6320332;28;20048;-46
2023/09/17 02:00:22;;;;;;;0.60;0.60;;;24.30;69.80;;;;;;6319386;28;20051;-48
2023/09/17 02:03:23;;;;;;;1.25;0.70;;;24.20;69.00;;;;;;6320135;28;20112;-44
2023/09/17 02:06:26;;;;;;;0.70;0.60;;;24.00;69.00;;;;;;6319259;28;20044;-46
2023/09/17 02:09:28;;;;;;;0.60;0.60;;;24.40;69.30;;;;;;6318027;28;20257;-44
2023/09/17 02:12:30;;;;;;;0.82;0.70;;;24.40;70.00;;;;;;6317715;28;20048;-48
2023/09/17 02:15:32;;;;;;;0.88;0.80;;;24.30;68.10;;;;;;6317613;28;20142;-42
2023/09/17 02:18:37;;;;;;;0.73;0.70;;;24.40;69.40;;;;;;6317782;28;20036;-45
2023/09/17 02:21:38;;;;;;;0.98;0.88;;;24.20;67.50;;;;;;6317722;28;20445;-43
2023/09/17 02:24:40;;;;;;;1.10;0.90;;;24.20;69.30;;;;;;6317936;28;20032;-42
2023/09/17 02:27:42;;;;;;;0.65;0.65;;;24.30;69.40;;;;;;6319948;28;20111;-43
2023/09/17 02:30:44;;;;;;;0.80;0.73;;;24.00;69.20;;;;;;6319392;28;20038;-45
2023/09/17 02:33:45;;;;;;;0.55;0.50;;;24.50;69.40;;;;;;6318974;28;20047;-45
2023/09/17 02:36:47;;;;;;;0.80;0.75;;;24.30;69.50;;;;;;6318869;28;20040;-44
2023/09/17 02:39:50;;;;;;;0.90;0.75;;;24.10;69.30;;;;;;6317689;28;20450;-44
2023/09/17 02:42:52;;;;;;;0.45;0.43;;;24.30;69.50;;;;;;6317361;28;20040;-46
2023/09/17 02:45:55;;;;;;;1.25;0.65;;;24.20;69.40;;;;;;6319230;28;20040;-44
2023/09/17 02:48:57;;;;;;;1.00;0.70;;;24.30;69.60;;;;;;6319078;28;20040;-47
2023/09/17 02:52:01;;;;;;;0.73;0.70;;;24.30;69.60;;;;;;6319379;28;20061;-47
2023/09/17 02:55:04;;;;;;;0.60;0.60;;;24.30;69.70;;;;;;6318937;28;20502;-45
2023/09/17 02:58:06;;;;;;;0.68;0.60;;;24.40;69.60;;;;;;6319339;28;20040;-47
2023/09/17 03:01:15;;;;;;;0.70;0.70;;;24.00;69.60;;;;;;6318595;28;20529;-44
2023/09/17 03:04:17;;;;;;;0.73;0.63;;;24.20;69.60;;;;;;6318910;28;20070;-45
2023/09/17 03:07:19;;;;;;;0.65;0.50;;;24.30;69.90;;;;;;6318562;28;20040;-47
2023/09/17 03:10:20;;;;;;;0.93;0.70;;;24.30;69.80;;;;;;6318819;28;20360;-47
2023/09/17 03:13:22;;;;;;;0.40;0.40;;;24.10;69.80;;;;;;6318068;28;20561;-45
2023/09/17 03:16:27;;;;;;;1.10;0.60;;;23.90;69.60;;;;;;6318133;28;20517;-46
2023/09/17 03:19:35;;;;;;;0.70;0.55;;;24.20;69.80;;;;;;6319343;28;20045;-46
2023/09/17 03:22:39;;;;;;;0.60;0.50;;;24.10;69.80;;;;;;6319208;28;20078;-45
2023/09/17 03:25:41;;;;;;;0.70;0.60;;;24.20;70.00;;;;;;6319674;28;20035;-46
2023/09/17 03:28:43;;;;;;;1.75;0.60;;;24.40;69.90;;;;;;6319699;28;20161;-46
2023/09/17 03:31:48;;;;;;;0.60;0.60;;;24.00;69.90;;;;;;6318431;28;20071;-45
2023/09/17 03:34:50;;;;;;;0.60;0.60;;;24.00;69.80;;;;;;6320152;28;20028;-45
2023/09/17 03:37:53;;;;;;;0.50;0.50;;;24.10;69.60;;;;;;6320385;28;20245;-45
2023/09/17 03:40:59;;;;;;;0.70;0.60;;;24.00;69.90;;;;;;6317984;28;20115;-48
2023/09/17 03:44:02;;;;;;;0.75;0.65;;;24.20;70.00;;;;;;6318718;28;20043;-47
2023/09/17 03:47:05;;;;;;;0.75;0.63;;;24.20;70.10;;;;;;6319760;28;20063;-43
2023/09/17 03:50:09;;;;;;;0.65;0.60;;;24.20;70.10;;;;;;6319669;28;20085;-44
2023/09/17 03:53:13;;;;;;;0.70;0.57;;;24.20;70.10;;;;;;6319754;28;20345;-46
2023/09/17 03:56:15;;;;;;;0.50;0.50;;;24.20;70.00;;;;;;6319317;28;20048;-48
2023/09/17 03:59:17;;;;;;;0.50;0.50;;;24.20;70.20;;;;;;6319279;28;20579;-43
2023/09/17 04:02:20;;;;;;;0.50;0.50;;;24.30;70.30;;;;;;6319451;28;20094;-45
2023/09/17 04:05:22;;;;;;;0.55;0.40;;;24.20;70.10;;;;;;6318918;28;20040;-44
2023/09/17 04:08:26;;;;;;;0.65;0.52;;;24.20;70.30;;;;;;6320011;28;20552;-46
2023/09/17 04:11:28;;;;;;;0.70;0.60;;;24.00;70.20;;;;;;6319334;28;20040;-45
2023/09/17 04:14:31;;;;;;;0.60;0.50;;;24.10;70.10;;;;;;6318002;28;20325;-43
2023/09/17 04:17:35;;;;;;;0.82;0.60;;;24.20;70.20;;;;;;6318055;28;20046;-43
2023/09/17 04:20:37;;;;;;;0.70;0.65;;;24.20;70.30;;;;;;6319668;28;20041;-43
2023/09/17 04:23:38;;;;;;;0.70;0.57;;;24.00;70.20;;;;;;6318823;28;20465;-46
2023/09/17 04:26:44;;;;;;;0.50;0.50;;;24.10;70.30;;;;;;6319600;28;20456;-42
2023/09/17 04:29:46;;;;;;;0.70;0.60;;;24.20;70.30;;;;;;6319064;28;20084;-46
2023/09/17 04:32:50;;;;;;;0.98;0.70;;;24.20;70.50;;;;;;6318491;28;20040;-49
2023/09/17 04:35:56;;;;;;;0.70;0.70;;;24.20;70.30;;;;;;6318938;28;20675;-44
2023/09/17 04:38:59;;;;;;;0.57;0.50;;;24.00;70.20;;;;;;6319029;28;20051;-44
2023/09/17 04:42:01;;;;;;;0.85;0.77;;;24.10;70.30;;;;;;6320345;28;20313;-46
2023/09/17 04:45:04;;;;;;;0.95;0.85;;;24.20;70.50;;;;;;6323368;28;20537;-46
2023/09/17 04:48:07;;;;;;;0.68;0.50;;;24.10;70.20;;;;;;6322225;28;20567;-43
2023/09/17 04:51:12;;;;;;;0.50;0.50;;;23.80;70.20;;;;;;6323087;28;20040;-48
2023/09/17 04:54:14;;;;;;;1.00;0.70;;;24.00;70.50;;;;;;6323194;28;20028;-47
2023/09/17 04:57:17;;;;;;;0.60;0.50;;;24.20;70.50;;;;;;6323864;28;20039;-48
2023/09/17 05:00:20;;;;;;;0.70;0.65;;;24.20;70.50;;;;;;6323882;28;20044;-44
2023/09/17 05:03:22;;;;;;;0.65;0.63;;;24.20;70.60;;;;;;6322799;28;20050;-43
2023/09/17 05:06:24;;;;;;;0.60;0.55;;;24.20;70.60;;;;;;6323385;28;20036;-45
2023/09/17 05:09:26;;;;;;;0.60;0.55;;;23.80;70.50;;;;;;6322632;28;20115;-44
2023/09/17 05:12:30;;;;;;;0.60;0.50;;;24.10;70.60;;;;;;6322441;28;20040;-49
2023/09/17 05:15:31;;;;;;;0.60;0.60;;;24.00;70.70;;;;;;6322765;28;20086;-47
2023/09/17 05:18:34;;;;;;;0.70;0.50;;;24.00;70.70;;;;;;6323427;28;20129;-48
2023/09/17 05:21:36;;;;;;;0.90;0.73;;;24.10;70.80;;;;;;6323192;28;20078;-45
2023/09/17 05:24:37;;;;;;;0.90;0.70;;;24.00;70.80;;;;;;6322350;28;20502;-44
2023/09/17 05:27:39;;;;;;;0.75;0.70;;;24.20;71.00;;;;;;6323045;28;20058;-47
2023/09/17 05:30:41;;;;;;;0.68;0.60;;;24.00;70.90;;;;;;6322644;28;20032;-45
2023/09/17 05:33:43;;;;;;;1.33;0.68;;;24.10;71.10;;;;;;6322722;28;20040;-47
2023/09/17 05:36:45;;;;;;;0.85;0.65;;;24.20;71.20;;;;;;6323315;28;20248;-46
2023/09/17 05:39:47;;;;;;;0.70;0.50;;;24.10;71.30;;;;;;6322170;28;20434;-46
2023/09/17 05:42:51;;;;;;;0.50;0.50;;;24.10;71.30;;;;;;6322120;28;20047;-43
2023/09/17 05:45:56;;;;;;;0.77;0.65;;;24.10;71.40;;;;;;6320398;28;20087;-46
2023/09/17 05:49:06;;;;;;;0.70;0.60;;;24.00;71.40;;;;;;6321545;28;20431;-43
2023/09/17 05:52:08;;;;;;;1.00;0.90;;;24.10;70.50;;;;;;6321949;28;20422;-47
2023/09/17 05:55:11;;;;;;;1.35;0.73;;;24.00;71.50;;;;;;6321728;28;20542;-45
2023/09/17 05:58:13;;;;;;;1.20;0.70;;;24.00;71.80;;;;;;6322347;28;20062;-47
2023/09/17 06:01:15;;;;;;;0.90;0.70;;;24.10;71.90;;;;;;6321201;28;20040;-49
2023/09/17 06:04:18;;;;;;;0.70;0.52;;;24.00;71.90;;;;;;6320991;28;20467;-44
2023/09/17 06:07:20;;;;;;;0.70;0.57;;;24.00;71.90;;;;;;6319747;28;20047;-44
2023/09/17 06:10:22;;;;;;;0.70;0.70;;;24.10;72.10;;;;;;6319328;28;20062;-45
2023/09/17 06:13:23;;;;;;;0.95;0.50;;;24.00;72.10;;;;;;6320565;28;20063;-44
2023/09/17 06:16:34;;;;;;;1.00;0.75;;;24.20;72.40;;;;;;6319960;28;20051;-48
2023/09/17 06:19:59;;;;;;;1.08;0.68;;;24.10;71.40;;;;;;6305261;28;20518;-46
2023/09/17 06:23:01;;;;;;;0.50;0.40;;;24.00;72.40;;;;;;6320667;28;20534;-46
2023/09/17 06:26:07;;;;;;;0.65;0.60;;;23.90;72.40;;;;;;6320042;28;20309;-44
2023/09/17 06:29:11;;;;;;;0.60;0.52;;;24.00;72.50;;;;;;6319862;28;20055;-47
2023/09/17 06:32:13;;;;;;;0.70;0.52;;;24.00;72.50;;;;;;6320068;28;20040;-47
2023/09/17 06:35:16;;;;;;;0.60;0.50;;;24.00;72.70;;;;;;6319899;28;20437;-44
2023/09/17 06:38:17;;;;;;;0.68;0.50;;;24.00;72.60;;;;;;6319289;28;20043;-43
2023/09/17 06:41:19;;;;;;;0.73;0.52;;;24.00;72.90;;;;;;6320046;28;20040;-43
2023/09/17 06:44:23;;;;;;;0.40;0.30;;;24.10;73.00;;;;;;6318988;28;20097;-48
2023/09/17 06:47:25;;;;;;;0.60;0.50;;;24.00;72.90;;;;;;6320082;28;20538;-46
2023/09/17 06:50:27;;;;;;;0.32;0.30;;;24.10;73.10;;;;;;6319770;28;20044;-47
2023/09/17 06:53:29;;;;;;;0.50;0.50;;;23.90;72.90;;;;;;6319714;28;20046;-46
2023/09/17 06:56:31;;;;;;;0.65;0.50;;;24.00;73.20;;;;;;6319584;28;20495;-49
2023/09/17 06:59:33;;;;;;;1.50;0.43;;;24.00;73.20;;;;;;6319949;28;20035;-43
2023/09/17 07:02:34;;;;;;;0.35;0.35;;;24.00;73.30;;;;;;6319080;28;20448;-43
2023/09/17 07:05:36;;;;;;;0.60;0.30;;;23.90;73.40;;;;;;6318682;28;20100;-44
2023/09/17 07:08:43;;;;;;;0.50;0.50;;;24.00;73.40;;;;;;6317297;28;20040;-45
2023/09/17 07:11:45;;;;;;;0.50;0.50;;;24.00;73.60;;;;;;6318884;28;20494;-46
2023/09/17 07:14:47;;;;;;;0.40;0.35;;;23.80;73.00;;;;;;6319463;28;20517;-45
2023/09/17 07:17:48;;;;;;;0.70;0.60;;;23.90;73.60;;;;;;6317377;28;20044;-45
2023/09/17 07:20:50;;;;;;;0.57;0.47;;;23.80;73.50;;;;;;6318881;28;20043;-46
2023/09/17 07:23:54;;;;;;;0.50;0.50;;;23.90;73.60;;;;;;6317587;28;20257;-46
2023/09/17 07:26:55;;;;;;;0.43;0.40;;;23.90;73.60;;;;;;6318871;28;20047;-48
2023/09/17 07:29:57;;;;;;;0.85;0.60;;;24.10;73.80;;;;;;6318765;28;20043;-42
2023/09/17 07:32:59;;;;;;;0.50;0.30;;;24.20;73.80;;;;;;6318793;28;20032;-43
2023/09/17 07:36:01;;;;;;;0.40;0.38;;;24.00;73.80;;;;;;6318938;28;20406;-43
2023/09/17 07:39:03;;;;;;;0.57;0.50;;;24.00;73.80;;;;;;6319213;28;20123;-44
2023/09/17 07:42:05;;;;;;;0.65;0.60;;;24.10;74.00;;;;;;6318874;28;20406;-45
2023/09/17 07:45:08;;;;;;;0.30;0.30;;;24.10;74.00;;;;;;6317723;28;20467;-47
2023/09/17 07:48:09;;;;;;;0.38;0.30;;;24.10;74.00;;;;;;6318832;28;20045;-47
2023/09/17 07:51:13;;;;;;;1.15;0.68;;;23.90;74.10;;;;;;6318215;28;20290;-47
2023/09/17 07:54:16;;;;;;;0.40;0.40;;;24.10;74.30;;;;;;6318478;28;20051;-48
2023/09/17 07:57:18;;;;;;;0.50;0.40;;;24.10;74.40;;;;;;6318740;28;20093;-46
2023/09/17 08:00:21;;;;;;;0.75;0.43;;;24.00;74.50;;;;;;6318724;28;20039;-47
2023/09/17 08:03:23;;;;;;;0.80;0.60;;;23.70;74.30;;;;;;6317587;28;20324;-44
2023/09/17 08:06:25;;;;;;;1.10;0.50;;;24.00;74.70;;;;;;6318436;28;20032;-46
2023/09/17 08:09:27;;;;;;;0.73;0.40;;;24.10;74.70;;;;;;6318425;28;20040;-49
2023/09/17 08:12:28;;;;;;;0.88;0.47;;;23.90;74.90;;;;;;6318266;28;20036;-46
2023/09/17 08:15:30;;;;;;;0.50;0.50;;;23.70;74.70;;;;;;6318904;28;20047;-47
2023/09/17 08:18:31;;;;;;;0.55;0.50;;;24.10;74.90;;;;;;6317412;28;20089;-49
2023/09/17 08:21:33;;;;;;;0.60;0.50;;;24.10;75.00;;;;;;6318290;28;20040;-46
2023/09/17 08:24:35;;;;;;;0.70;0.45;;;24.00;75.00;;;;;;6318114;28;20032;-45
2023/09/17 08:27:39;;;;;;;0.38;0.38;;;24.10;75.20;;;;;;6318485;28;20040;-47
2023/09/17 08:30:41;;;;;;;0.63;0.50;;;24.10;75.30;;;;;;6319005;28;20040;-45
2023/09/17 08:33:45;;;;;;;0.52;0.50;;;23.90;75.00;;;;;;6318372;28;20407;-45
2023/09/17 08:36:47;;;;;;;1.00;0.40;;;24.20;75.40;;;;;;6318009;28;20093;-46
2023/09/17 08:39:53;;;;;;;0.60;0.50;;;23.80;75.00;;;;;;6318856;28;20479;-46
2023/09/17 08:42:56;;;;;;;0.90;0.70;;;24.20;73.60;;;;;;6317545;28;20048;-43
2023/09/17 08:46:00;;;;;;;0.50;0.50;;;24.20;75.30;;;;;;6317737;28;20366;-48
2023/09/17 08:49:01;;;;;;;0.40;0.40;;;24.20;75.30;;;;;;6317683;28;20044;-46
2023/09/17 08:52:06;;;;;;;0.50;0.47;;;23.80;75.10;;;;;;6317083;28;20509;-44
2023/09/17 08:55:10;;;;;;;0.40;0.40;;;24.20;75.40;;;;;;6317722;28;20060;-46
2023/09/17 08:58:15;;;;;;;0.40;0.32;;;24.20;75.40;;;;;;6316040;28;20044;-47
2023/09/17 09:01:20;;;;;;;0.30;0.30;;;24.20;75.30;;;;;;6316187;28;20063;-47
2023/09/17 09:04:27;;;;;;;0.50;0.35;;;24.20;75.50;;;;;;6317089;28;20043;-47
2023/09/17 09:07:29;;;;;;;0.93;0.35;;;24.00;75.50;;;;;;6316037;28;20036;-46
2023/09/17 09:10:31;;;;;;;0.70;0.50;;;24.20;75.70;;;;;;6316569;28;20067;-46
2023/09/17 09:13:34;;;;;;;0.40;0.40;;;24.30;75.90;;;;;;6317065;28;20071;-45
2023/09/17 09:16:37;;;;;;;0.73;0.40;;;24.20;75.90;;;;;;6316413;28;20097;-44
2023/09/17 09:19:40;;;;;;;0.50;0.40;;;24.30;76.10;;;;;;6316345;28;20079;-44
2023/09/17 09:22:45;;;;;;;0.50;0.50;;;24.10;76.00;;;;;;6316773;28;20028;-46
2023/09/17 09:25:46;;;;;;;0.40;0.40;;;24.10;76.00;;;;;;6316117;28;20042;-47
2023/09/17 09:28:47;;;;;;;0.98;0.38;;;24.30;76.10;;;;;;6317628;28;20036;-43
2023/09/17 09:31:49;;;;;;;0.60;0.50;;;24.30;76.30;;;;;;6318217;28;20036;-43
2023/09/17 09:34:55;;;;;;;0.40;0.40;;;24.20;76.00;;;;;;6319518;28;20157;-48
2023/09/17 09:38:00;;;;;;;0.70;0.60;;;24.20;76.10;;;;;;6319897;28;20036;-46
2023/09/17 09:41:02;;;;;;;0.52;0.40;;;24.40;76.20;;;;;;6319630;28;20431;-47
2023/09/17 09:44:07;;;;;;;0.60;0.43;;;24.40;76.30;;;;;;6319490;28;20055;-47
2023/09/17 09:47:09;;;;;;;0.40;0.40;;;24.30;76.10;;;;;;6318612;28;20332;-46
2023/09/17 09:50:21;;;;;;;0.90;0.47;;;24.10;76.10;;;;;;6320221;28;20058;-50
2023/09/17 09:53:24;;;;;;;;;;;24.30;76.00;;;;;;6320250;28;20029;-48
2023/09/17 09:56:29;;;;;;;0.40;0.40;;;24.40;76.20;;;;;;6319804;28;20287;-47
2023/09/17 09:59:31;;;;;;;0.60;0.40;;;24.00;75.60;;;;;;6319174;28;20047;-48
2023/09/17 10:02:32;;;;;;;0.55;0.52;;;24.40;76.10;;;;;;6319843;28;20033;-47
2023/09/17 10:05:36;;;;;;;0.47;0.47;;;24.30;76.00;;;;;;6319747;28;20044;-44
2023/09/17 10:08:40;;;;;;;0.47;0.30;;;24.10;76.00;;;;;;6319791;28;20044;-46
2023/09/17 10:11:42;;;;;;;0.60;0.60;;;24.50;76.20;;;;;;6318660;28;20060;-46
2023/09/17 10:14:44;;;;;;;0.50;0.50;;;24.40;76.30;;;;;;6318595;28;20089;-46
2023/09/17 10:17:47;;;;;;;0.40;0.40;;;23.90;75.80;;;;;;6318927;28;20086;-47
2023/09/17 10:20:52;;;;;;;0.50;0.40;;;24.40;76.00;;;;;;6319344;28;20032;-47
2023/09/17 10:23:55;;;;;;;0.60;0.50;;;24.20;75.90;;;;;;6319377;28;20577;-43
2023/09/17 10:27:01;;;;;;;0.75;0.50;;;24.50;76.00;;;;;;6283919;28;20056;-44
2023/09/17 10:30:04;;;;;;;0.50;0.50;;;24.50;76.00;;;;;;6319555;28;20498;-48
2023/09/17 10:33:09;;;;;;;0.65;0.50;;;24.50;75.90;;;;;;6318903;28;20275;-47
2023/09/17 10:36:13;;;;;;;0.50;0.40;;;24.20;75.80;;;;;;6317903;28;20044;-45
2023/09/17 10:39:16;;;;;;;0.55;0.40;;;24.40;75.80;;;;;;6318134;28;20051;-46
2023/09/17 10:42:20;;;;;;;0.88;0.50;;;24.40;75.60;;;;;;6317633;28;20046;-46
2023/09/17 10:45:23;;;;;;;0.60;0.60;;;24.50;75.70;;;;;;6299546;28;20040;-47
2023/09/17 10:48:27;;;;;;;0.63;0.60;;;24.30;75.50;;;;;;6318420;28;20507;-49
2023/09/17 10:51:34;;;;;;;1.00;0.50;;;24.50;75.60;;;;;;6317520;28;20047;-45
2023/09/17 10:54:37;;;;;;;0.75;0.50;;;24.70;75.60;;;;;;6317275;28;20040;-46
2023/09/17 10:57:41;;;;;;;0.63;0.50;;;24.30;75.50;;;;;;6318035;28;20080;-46
2023/09/17 11:00:46;;;;;;;0.68;0.40;;;24.70;75.50;;;;;;6317919;28;20161;-43
2023/09/17 11:03:52;;;;;;;0.47;0.38;;;24.60;75.40;;;;;;6317813;28;20040;-44
2023/09/17 11:06:55;;;;;;;0.93;0.50;;;24.50;75.40;;;;;;6317542;28;20051;-45
2023/09/17 11:09:58;;;;;;;0.60;0.52;;;24.50;75.30;;;;;;6318147;28;20531;-45
2023/09/17 11:13:00;;;;;;;0.70;0.50;;;24.40;75.20;;;;;;6317998;28;20205;-48
2023/09/17 11:16:01;;;;;;;0.52;0.52;;;24.20;75.00;;;;;;6317440;28;20036;-46
2023/09/17 11:19:09;;;;;;;0.63;0.50;;;24.50;75.30;;;;;;6316967;28;20047;-44
2023/09/17 11:22:13;;;;;;;1.02;0.50;;;24.50;75.20;;;;;;6317959;28;20039;-44
2023/09/17 11:25:31;;;;;;;0.85;0.70;;;24.70;75.40;;;;;;6317138;28;20117;-44
2023/09/17 11:28:37;;;;;;;0.85;0.60;;;24.60;75.30;;;;;;6317429;28;20040;-43
2023/09/17 11:31:59;;;;;;;0.95;0.60;;;24.40;75.10;;;;;;6317320;28;20051;-44
2023/09/17 11:35:01;;;;;;;0.50;0.47;;;24.50;75.20;;;;;;6316742;28;20503;-45
2023/09/17 11:38:02;;;;;;;0.85;0.60;;;24.70;75.30;;;;;;6317102;28;20438;-46
2023/09/17 11:41:07;;;;;;;0.93;0.70;;;24.70;75.30;;;;;;6316581;28;20127;-46
2023/09/17 11:44:10;;;;;;;1.23;0.65;;;24.50;74.90;;;;;;6316846;28;20040;-45
2023/09/17 11:47:13;;;;;;;0.70;0.60;;;24.70;75.30;;;;;;6316710;28;20111;-45
2023/09/17 11:50:16;;;;;;;0.82;0.57;;;24.80;75.20;;;;;;6316617;28;20033;-46
2023/09/17 11:53:19;;;;;;;0.80;0.55;;;24.80;75.30;;;;;;6315493;28;20043;-47
2023/09/17 11:56:21;;;;;;;1.60;0.60;;;24.70;75.20;;;;;;6315517;28;20070;-47
2023/09/17 11:59:26;;;;;;;1.75;0.75;;;24.90;75.20;;;;;;6315420;28;20218;-45
2023/09/17 12:02:30;;;;;;;1.05;0.60;;;24.50;75.20;;;;;;6316705;28;20498;-43
2023/09/17 12:05:33;;;;;;;1.00;0.60;;;24.90;75.50;;;;;;6315739;28;20113;-48
2023/09/17 12:08:35;;;;;;;0.73;0.60;;;24.40;75.00;;;;;;6315805;28;20036;-48
2023/09/17 12:11:37;;;;;;;1.20;0.80;;;24.70;75.30;;;;;;6315304;28;20032;-43
2023/09/17 12:14:39;;;;;;;1.20;0.70;;;24.90;75.40;;;;;;6315789;28;20494;-44
2023/09/17 12:17:43;;;;;;;1.25;0.90;;;24.80;75.20;;;;;;6314760;28;20074;-48
2023/09/17 12:20:56;;;;;;;0.90;0.70;;;25.00;75.30;;;;;;6314363;28;20040;-44
2023/09/17 12:23:58;;;;;;;;;;;24.70;75.10;;;;;;6314231;28;20039;-47
2023/09/17 12:27:19;;;;;;;1.42;0.88;;;24.90;75.50;;;;;;6313405;28;20120;-48
2023/09/17 12:30:21;;;;;;;0.82;0.82;;;24.90;75.10;;;;;;6314941;28;20032;-47
2023/09/17 12:33:24;;;;;;;1.63;0.88;;;24.80;75.20;;;;;;6314406;28;20071;-47
2023/09/17 12:36:25;;;;;;;0.80;0.80;;;25.10;75.40;;;;;;6315620;28;20105;-44
2023/09/17 12:39:28;;;;;;;1.05;0.95;;;25.10;75.30;;;;;;6314789;28;20040;-43
2023/09/17 12:42:30;;;;;;;1.20;0.95;;;25.10;75.40;;;;;;6312253;28;20082;-48
2023/09/17 12:45:31;;;;;;;1.35;0.82;;;24.90;75.10;;;;;;6314472;28;20303;-44
2023/09/17 12:48:34;;;;;;;1.35;0.90;;;24.80;75.30;;;;;;6314123;28;20046;-45
2023/09/17 12:51:37;;;;;;;1.27;0.88;;;24.70;75.00;;;;;;6313878;28;20047;-43
2023/09/17 12:54:39;;;;;;;0.90;0.80;;;24.70;75.00;;;;;;6314173;28;20487;-45
2023/09/17 12:57:41;;;;;;;0.73;0.70;;;25.00;75.10;;;;;;6313564;28;20044;-46
2023/09/17 13:00:43;;;;;;;1.00;0.82;;;24.90;75.10;;;;;;6313262;28;20040;-45
2023/09/17 13:03:54;;;;;;;1.67;0.90;;;25.10;75.20;;;;;;6316913;28;20032;-47
2023/09/17 13:06:57;;;;;;;1.10;0.90;;;25.10;75.10;;;;;;6319130;28;20036;-47
2023/09/17 13:10:00;;;;;;;1.35;1.13;;;25.10;75.10;;;;;;6319655;28;20073;-47
2023/09/17 13:13:04;;;;;;;0.82;0.77;;;24.90;74.80;;;;;;6318000;28;20036;-45
2023/09/17 13:16:06;;;;;;;1.63;1.27;;;25.10;75.00;;;;;;6319470;28;20047;-48
2023/09/17 13:19:12;;;;;;;1.42;1.10;;;25.10;75.00;;;;;;6318632;28;20511;-49
2023/09/17 13:22:15;;;;;;;1.13;0.95;;;25.10;74.80;;;;;;6317905;28;20051;-46
2023/09/17 13:25:17;;;;;;;1.90;0.90;;;24.90;74.70;;;;;;6316617;28;20090;-46
2023/09/17 13:28:20;;;;;;;1.27;0.90;;;24.90;74.50;;;;;;6317102;28;20101;-45
2023/09/17 13:31:21;;;;;;;1.10;1.00;;;25.20;74.70;;;;;;6317112;28;20040;-46
2023/09/17 13:34:27;;;;;;;1.38;0.93;;;25.00;74.50;;;;;;6318841;28;20458;-45
2023/09/17 13:37:32;;;;;;;1.05;0.95;;;25.30;74.60;;;;;;6318680;28;20059;-44
2023/09/17 13:40:36;;;;;;;1.67;1.00;;;25.00;74.20;;;;;;6319033;28;20410;-46
2023/09/17 13:43:38;;;;;;;1.52;0.98;;;25.20;74.40;;;;;;6319515;28;20032;-43
2023/09/17 13:46:45;;;;;;;1.10;1.00;;;25.30;74.30;;;;;;6318488;28;20032;-45
2023/09/17 13:49:47;;;;;;;1.13;0.93;;;25.10;74.10;;;;;;6318421;28;20043;-44
2023/09/17 13:52:48;;;;;;;1.25;1.15;;;25.00;74.10;;;;;;6317696;28;20039;-42
2023/09/17 13:55:52;;;;;;;1.50;1.08;;;25.10;74.10;;;;;;6317200;28;20048;-46
2023/09/17 13:58:54;;;;;;;1.20;1.10;;;25.00;73.90;;;;;;6316880;28;20085;-46
2023/09/17 14:01:56;;;;;;;1.25;0.90;;;25.10;74.00;;;;;;6318020;28;20436;-43
2023/09/17 14:04:57;;;;;;;1.20;1.10;;;25.00;73.80;;;;;;6318062;28;20070;-46
2023/09/17 14:08:00;;;;;;;2.28;1.85;;;25.10;73.90;;;;;;6316327;28;20036;-45
2023/09/17 14:11:03;;;;;;;1.33;1.17;;;25.30;73.80;;;;;;6314120;28;20032;-43
2023/09/17 14:14:05;;;;;;;1.20;1.10;;;25.10;73.70;;;;;;6316118;28;20032;-47
2023/09/17 14:17:08;;;;;;;1.05;0.95;;;25.20;73.70;;;;;;6316865;28;20064;-47
2023/09/17 14:20:10;;;;;;;1.23;1.00;;;25.20;74.40;;;;;;6317075;28;20035;-46
2023/09/17 14:23:12;;;;;;;0.98;0.90;;;25.10;73.30;;;;;;6317456;28;20260;-46
2023/09/17 14:26:14;;;;;;;1.15;0.98;;;24.60;73.20;;;;;;6316583;28;20032;-44
2023/09/17 14:29:18;;;;;;;1.30;1.10;;;25.10;73.30;;;;;;6317134;28;20047;-46
2023/09/17 14:32:22;;;;;;;0.93;0.82;;;25.10;73.30;;;;;;6318616;28;20056;-47
2023/09/17 14:35:26;;;;;;;1.65;1.00;;;25.30;73.30;;;;;;6316574;28;20111;-47
2023/09/17 14:38:27;;;;;;;1.25;1.10;;;25.30;73.30;;;;;;6316161;28;20040;-47
2023/09/17 14:41:29;;;;;;;0.95;0.90;;;25.20;73.10;;;;;;6316587;28;20032;-46
2023/09/17 14:44:32;;;;;;;1.48;1.00;;;25.20;73.00;;;;;;6317322;28;20036;-45
2023/09/17 14:47:35;;;;;;;1.17;1.08;;;25.10;72.90;;;;;;6317076;28;20041;-47
2023/09/17 14:50:37;;;;;;;1.40;1.30;;;25.10;73.00;;;;;;6317513;28;20046;-47
2023/09/17 14:53:38;;;;;;;1.27;1.00;;;25.20;73.00;;;;;;6317188;28;20047;-46
2023/09/17 14:56:41;;;;;;;1.77;1.30;;;24.90;72.70;;;;;;6316936;28;20064;-45
2023/09/17 14:59:43;;;;;;;1.10;1.00;;;25.30;72.80;;;;;;6316231;28;20047;-44
2023/09/17 15:02:44;;;;;;;1.70;1.08;;;25.30;72.70;;;;;;6316281;28;20045;-47
2023/09/17 15:05:46;;;;;;;0.85;0.85;;;25.30;72.60;;;;;;6315913;28;20044;-46
2023/09/17 15:08:48;;;;;;;1.13;0.90;;;25.20;72.50;;;;;;6315732;28;20059;-48
2023/09/17 15:11:50;;;;;;;1.30;0.98;;;25.20;72.20;;;;;;6315770;28;20156;-44
2023/09/17 15:14:53;;;;;;;1.00;0.90;;;25.30;72.20;;;;;;6316033;28;20534;-47
2023/09/17 15:17:55;;;;;;;0.80;0.80;;;25.30;72.00;;;;;;6316473;28;20227;-45
2023/09/17 15:21:03;;;;;;;1.33;0.90;;;24.90;71.70;;;;;;6316720;28;20145;-44
2023/09/17 15:24:04;;;;;;;0.90;0.70;;;25.10;71.80;;;;;;6316504;28;20036;-46
2023/09/17 15:27:06;;;;;;;0.90;0.85;;;25.30;71.70;;;;;;6316583;28;20054;-46
2023/09/17 15:30:10;;;;;;;1.73;0.88;;;25.30;71.70;;;;;;6316713;28;20120;-46
2023/09/17 15:33:13;;;;;;;1.20;0.80;;;25.10;71.30;;;;;;6317236;28;20394;-48
2023/09/17 15:36:15;;;;;;;1.20;1.10;;;25.20;72.00;;;;;;6316417;28;20033;-44
2023/09/17 15:39:20;;;;;;;0.82;0.82;;;25.10;71.10;;;;;;6316048;28;20051;-46
2023/09/17 15:42:21;;;;;;;1.25;0.90;;;25.20;71.10;;;;;;6315800;28;20044;-47
2023/09/17 15:45:26;;;;;;;0.80;0.80;;;25.20;71.10;;;;;;6315602;28;20040;-46
2023/09/17 15:48:27;;;;;;;0.75;0.60;;;24.90;70.70;;;;;;6315479;28;20043;-48
2023/09/17 15:51:29;;;;;;;1.23;1.13;;;25.00;70.70;;;;;;6315865;28;20040;-49
2023/09/17 15:54:30;;;;;;;1.20;0.90;;;25.20;70.60;;;;;;6315048;28;20044;-48